Time;durP1;ratioP1;P1;durP2;ratioP2;P2;SDS_P1;SDS_P2;PMS_P1;PMS_P2;Temp;Humidity;BMP_temperature;BMP_pressure;BME280_temperature;BME280_humidity;BME280_pressure;Samples;Min_cycle;Max_cycle;Signal;HPM_P1;HPM_P2
2022/11/18 00:02:20;;;;;;;8.30;5.10;;;;;;;-2.07;79.96;97712.23;102359;1298;76333;-25
2022/11/18 00:04:47;;;;;;;11.90;6.80;;;;;;;-2.33;80.52;97717.29;102320;1299;76813;-25
2022/11/18 00:07:14;;;;;;;9.90;5.90;;;;;;;-2.58;81.17;97723.80;102221;1291;73143;-25
2022/11/18 00:09:41;;;;;;;11.00;6.90;;;;;;;-2.84;82.19;97725.40;102322;1299;61133;-25
2022/11/18 00:14:54;;;;;;;5.70;3.40;;;;;;;-2.43;83.28;97729.35;102373;1293;76372;-26
2022/11/18 00:17:20;;;;;;;6.00;3.90;;;;;;;-1.88;80.36;97727.46;102345;1299;76085;-24
2022/11/18 00:19:47;;;;;;;7.70;5.80;;;;;;;-1.74;79.41;97726.55;102291;1294;75346;-24
2022/11/18 00:22:14;;;;;;;9.80;5.30;;;;;;;-1.95;78.80;97725.75;102312;1291;61798;-24
2022/11/18 00:24:41;;;;;;;4.80;3.40;;;;;;;-2.19;79.41;97724.95;101975;1299;61791;-23
2022/11/18 00:27:08;;;;;;;9.50;5.20;;;;;;;-2.35;79.69;97731.70;102196;1300;75270;-23
2022/11/18 00:29:36;;;;;;;11.00;7.00;;;;;;;-2.62;81.33;97733.53;102319;1291;75663;-23
2022/11/18 00:32:03;;;;;;;11.70;6.60;;;;;;;-3.17;83.64;97737.48;102383;1299;74617;-24
2022/11/18 00:34:30;;;;;;;10.30;5.80;;;;;;;-2.92;83.71;97733.40;102245;1290;62098;-24
2022/11/18 00:36:57;;;;;;;16.40;6.80;;;;;;;-2.27;81.89;97726.20;102282;1298;61632;-24
2022/11/18 00:39:24;;;;;;;5.90;4.40;;;;;;;-2.46;81.10;97722.55;102294;1298;75745;-24
2022/11/18 00:44:37;;;;;;;12.50;5.00;;;;;;;-3.03;83.34;97719.99;102350;1299;74674;-24
2022/11/18 00:47:04;;;;;;;8.30;5.00;;;;;;;-2.91;83.57;97719.79;102291;1293;61835;-24
2022/11/18 00:49:31;;;;;;;8.20;4.80;;;;;;;-3.28;83.78;97725.39;102383;1283;62869;-23
2022/11/18 00:51:58;;;;;;;7.40;3.80;;;;;;;-3.43;84.44;97728.79;102321;1292;74108;-23
2022/11/18 00:54:25;;;;;;;5.90;3.40;;;;;;;-3.12;84.60;97721.63;102326;1299;76760;-24
2022/11/18 00:56:52;;;;;;;4.40;3.50;;;;;;;-2.58;82.55;97720.05;102262;1299;74272;-24
2022/11/18 00:59:19;;;;;;;5.70;4.30;;;;;;;-2.13;81.11;97720.56;102298;1302;61975;-23
2022/11/18 01:01:47;;;;;;;13.30;6.80;;;;;;;-2.36;81.11;97723.23;102359;1299;61886;-23
2022/11/18 01:04:15;;;;;;;9.50;5.50;;;;;;;-2.64;81.79;97724.59;102340;1294;76377;-23
2022/11/18 01:06:42;;;;;;;10.30;5.80;;;;;;;-2.72;82.38;97727.56;102391;1299;76672;-23
2022/11/18 01:09:09;;;;;;;9.50;5.40;;;;;;;-2.91;83.08;97727.92;102341;1300;75233;-23
2022/11/18 01:14:23;;;;;;;9.50;5.00;;;;;;;-3.29;84.03;97718.85;102329;1297;61157;-23
2022/11/18 01:16:54;;;;;;;7.00;3.90;;;;;;;-2.84;83.51;97715.36;102347;1291;75990;-24
2022/11/18 01:19:22;;;;;;;13.50;5.70;;;;;;;-2.60;81.51;97713.39;102221;1294;76659;-23
2022/11/18 01:21:49;;;;;;;7.20;4.20;;;;;;;-2.52;80.23;97716.39;102317;1297;74023;-24
2022/11/18 01:24:16;;;;;;;6.70;4.50;;;;;;;-2.64;80.62;97714.05;102318;1298;62186;-24
2022/11/18 01:26:43;;;;;;;6.10;4.70;;;;;;;-3.00;81.40;97711.86;102337;1293;62878;-24
2022/11/18 01:29:10;;;;;;;9.60;5.80;;;;;;;-3.31;82.53;97713.52;102322;1298;76019;-24
2022/11/18 01:31:38;;;;;;;9.00;4.90;;;;;;;-3.37;83.66;97716.48;102324;1299;76983;-24
2022/11/18 01:34:27;;;;;;;5.80;3.90;;;;;;;-3.47;84.00;97715.91;102324;1295;75173;-25
2022/11/18 01:36:56;;;;;;;6.00;4.10;;;;;;;-3.73;84.37;97712.83;102254;1299;62648;-24
2022/11/18 01:39:23;;;;;;;7.60;3.30;;;;;;;-3.52;83.68;97711.37;102329;1299;62567;-24
2022/11/18 01:41:50;;;;;;;5.20;3.50;;;;;;;-3.09;81.93;97713.16;102187;1301;76402;-24
2022/11/18 01:44:57;;;;;;;7.50;3.50;;;;;;;-3.07;80.73;97709.15;102341;1299;76286;-24
2022/11/18 01:47:31;;;;;;;8.00;3.10;;;;;;;-3.24;81.46;97708.44;102331;1291;75281;-24
2022/11/18 01:49:58;;;;;;;9.20;3.80;;;;;;;-3.30;82.02;97710.40;102173;1302;62121;-24
2022/11/18 01:52:25;;;;;;;4.00;3.50;;;;;;;-3.41;82.24;97710.36;102370;1291;61523;-23
2022/11/18 01:54:54;;;;;;;7.70;4.00;;;;;;;-3.82;83.52;97708.80;102323;1299;76085;-23
2022/11/18 01:57:22;;;;;;;5.70;3.30;;;;;;;-3.69;84.11;97709.42;102310;1293;77017;-24
2022/11/18 01:59:49;;;;;;;4.10;2.90;;;;;;;-2.81;82.33;97710.46;102255;1299;72810;-23
2022/11/18 02:02:17;;;;;;;6.20;3.30;;;;;;;-2.86;80.30;97703.76;102187;1295;62056;-23
2022/11/18 02:04:47;;;;;;;5.60;3.80;;;;;;;-2.67;80.70;97708.45;102261;1302;62828;-23
2022/11/18 02:07:14;;;;;;;7.10;2.90;;;;;;;-2.81;80.60;97709.30;102218;1302;76685;-23
2022/11/18 02:09:42;;;;;;;6.10;3.40;;;;;;;-2.98;80.83;97710.58;102271;1299;75665;-23
2022/11/18 02:12:09;;;;;;;5.90;3.90;;;;;;;-3.46;81.61;97712.81;102328;1299;73818;-23
2022/11/18 02:14:38;;;;;;;5.80;3.80;;;;;;;-3.52;82.68;97712.91;102322;1297;61121;-23
2022/11/18 02:17:30;;;;;;;5.10;4.00;;;;;;;-3.60;82.93;97715.16;102145;1291;62547;-23
2022/11/18 02:20:16;;;;;;;5.10;3.10;;;;;;;-3.79;83.84;97712.76;102344;1299;76349;-23
2022/11/18 02:23:28;;;;;;;4.40;3.10;;;;;;;-2.81;82.22;97708.75;102338;1298;77113;-23
2022/11/18 02:25:59;;;;;;;4.20;2.90;;;;;;;-2.59;79.91;97707.04;102295;1302;75399;-23
2022/11/18 02:28:29;;;;;;;3.60;2.90;;;;;;;-2.72;79.92;97711.23;102287;1302;61186;-23
2022/11/18 02:31:16;;;;;;;3.70;2.80;;;;;;;-2.75;80.43;97708.34;102226;1299;61836;-23
2022/11/18 02:33:46;;;;;;;5.90;3.80;;;;;;;-2.89;80.76;97703.73;102064;1295;76325;-23
2022/11/18 02:36:20;;;;;;;8.20;4.50;;;;;;;-3.12;81.26;97705.31;102363;1297;76365;-23
2022/11/18 02:38:51;;;;;;;10.60;5.30;;;;;;;-3.30;81.97;97703.25;102322;1294;73937;-23
2022/11/18 02:41:24;;;;;;;8.10;4.20;;;;;;;-3.51;83.29;97705.21;102129;1301;63456;-23
2022/11/18 02:43:57;;;;;;;4.80;3.50;;;;;;;-3.12;82.88;97703.30;102232;1301;62769;-23
2022/11/18 02:46:31;;;;;;;3.50;3.00;;;;;;;-2.75;80.98;97702.18;102211;1299;76387;-23
2022/11/18 02:49:00;;;;;;;7.90;4.60;;;;;;;-2.37;80.15;97701.88;102226;1295;74803;-26
2022/11/18 02:51:28;;;;;;;5.00;3.80;;;;;;;-2.55;79.85;97700.16;102177;1302;75125;-26
2022/11/18 02:53:56;;;;;;;5.40;4.10;;;;;;;-2.60;80.08;97703.14;102125;1299;61058;-25
2022/11/18 02:56:24;;;;;;;6.10;4.00;;;;;;;-2.88;80.88;97709.11;102041;1294;61655;-25
2022/11/18 02:58:51;;;;;;;3.30;2.80;;;;;;;-2.99;81.51;97705.20;102294;1302;75324;-26
2022/11/18 03:01:29;;;;;;;4.60;3.20;;;;;;;-3.12;81.51;97711.79;102362;1298;76668;-26
2022/11/18 03:03:56;;;;;;;3.80;3.10;;;;;;;-2.89;81.97;97713.89;102200;1294;75096;-23
2022/11/18 03:06:39;;;;;;;4.40;2.00;;;;;;;-2.13;80.82;97710.85;102317;1291;62050;-23
2022/11/18 03:09:19;;;;;;;3.90;3.00;;;;;;;-1.83;79.56;97707.98;102258;1302;61522;-25
2022/11/18 03:12:02;;;;;;;3.80;2.80;;;;;;;-1.95;78.74;97709.29;102323;1299;76242;-25
2022/11/18 03:14:35;;;;;;;3.20;2.50;;;;;;;-2.19;78.50;97708.79;102258;1299;76820;-26
2022/11/18 03:17:26;;;;;;;3.30;2.50;;;;;;;-2.42;79.19;97709.41;102262;1302;74968;-25
2022/11/18 03:19:59;;;;;;;3.60;2.90;;;;;;;-2.70;79.63;97707.20;101933;1299;61107;-25
2022/11/18 03:23:23;;;;;;;4.90;2.40;;;;;;;-2.94;80.15;97702.92;102284;1300;62898;-28
2022/11/18 03:25:55;;;;;;;6.80;3.20;;;;;;;-3.13;80.93;97705.38;101556;1309;76370;-23
2022/11/18 03:28:27;;;;;;;3.50;2.60;;;;;;;-2.73;80.92;97706.02;101630;1306;76786;-23
2022/11/18 03:31:09;;;;;;;1.60;1.20;;;;;;;-1.94;79.88;97707.87;101426;1307;73216;-23
2022/11/18 03:33:59;;;;;;;3.70;2.70;;;;;;;-1.78;77.52;97704.84;101648;1306;62662;-23
2022/11/18 03:36:29;;;;;;;5.50;3.20;;;;;;;-2.04;77.08;97701.05;101487;1310;62436;-23
2022/11/18 03:38:58;;;;;;;4.10;3.00;;;;;;;-2.30;77.46;97705.08;101465;1309;75139;-23
2022/11/18 03:41:28;;;;;;;4.90;3.50;;;;;;;-2.49;78.21;97706.19;101472;1310;75791;-23
2022/11/18 03:43:57;;;;;;;4.60;3.20;;;;;;;-2.77;78.79;97708.27;101324;1313;74582;-23
2022/11/18 03:46:30;;;;;;;4.40;2.70;;;;;;;-2.94;79.33;97704.65;101294;1309;61129;-23
2022/11/18 03:48:57;;;;;;;3.10;2.30;;;;;;;-3.10;79.77;97707.91;101151;1313;61792;-23
2022/11/18 03:51:28;;;;;;;4.70;3.20;;;;;;;-2.53;80.33;97710.98;101456;1307;76337;-23
2022/11/18 03:54:24;;;;;;;3.30;2.50;;;;;;;-1.79;79.14;97714.20;101448;1301;76795;-23
2022/11/18 03:57:05;;;;;;;3.30;2.70;;;;;;;-1.69;77.40;97713.35;101801;1299;74259;-23
2022/11/18 03:59:40;;;;;;;2.90;2.20;;;;;;;-1.93;76.93;97708.67;102356;1302;61088;-23
2022/11/18 04:02:12;;;;;;;3.00;2.20;;;;;;;-2.22;77.13;97712.85;102342;1299;62733;-23
2022/11/18 04:04:39;;;;;;;2.70;2.20;;;;;;;-2.50;77.57;97714.21;102302;1296;76366;-23
2022/11/18 04:07:16;;;;;;;3.70;2.70;;;;;;;-2.70;78.78;97716.75;102330;1297;76608;-24
2022/11/18 04:10:11;;;;;;;4.70;3.20;;;;;;;-2.89;79.56;97711.04;102331;1295;75179;-23
2022/11/18 04:12:59;;;;;;;3.20;2.10;;;;;;;-2.82;80.34;97707.42;102269;1302;63758;-24
2022/11/18 04:15:32;;;;;;;3.90;2.50;;;;;;;-2.07;79.05;97710.71;102364;1294;62703;-24
2022/11/18 04:17:59;;;;;;;4.40;2.80;;;;;;;-1.89;78.37;97711.87;102318;1299;75485;-24
2022/11/18 04:20:26;;;;;;;4.30;2.70;;;;;;;-2.00;78.40;97710.87;102309;1291;76656;-24
2022/11/18 04:22:52;;;;;;;5.30;3.50;;;;;;;-2.23;78.37;97707.30;102308;1299;74960;-24
2022/11/18 04:25:19;;;;;;;7.90;2.90;;;;;;;-2.53;78.55;97707.61;102214;1301;61245;-24
2022/11/18 04:27:46;;;;;;;4.30;2.90;;;;;;;-2.81;79.34;97707.09;102160;1302;62721;-24
2022/11/18 04:30:13;;;;;;;7.20;4.70;;;;;;;-3.05;80.11;97704.79;102320;1298;76393;-23
2022/11/18 04:32:40;;;;;;;5.50;3.20;;;;;;;-2.92;80.67;97706.06;102277;1302;76812;-24
2022/11/18 04:35:08;;;;;;;5.60;4.00;;;;;;;-2.18;79.60;97704.80;102138;1302;74153;-24
2022/11/18 04:37:34;;;;;;;4.40;2.70;;;;;;;-1.83;78.48;97707.95;102280;1292;61633;-24
2022/11/18 04:40:03;;;;;;;6.20;3.60;;;;;;;-1.90;77.81;97705.27;102221;1299;62146;-24
2022/11/18 04:42:30;;;;;;;7.40;4.70;;;;;;;-2.15;77.97;97707.42;102058;1294;74377;-24
2022/11/18 04:44:57;;;;;;;5.00;3.50;;;;;;;-2.38;78.77;97700.73;102278;1299;74684;-24
2022/11/18 04:48:29;;;;;;;5.00;3.40;;;;;;;-2.76;79.30;97698.32;99291;1337;600416;-22
2022/11/18 04:50:56;;;;;;;8.50;4.90;;;;;;;-2.97;80.10;97702.75;101288;1304;62113;-22
2022/11/18 04:53:23;;;;;;;8.90;4.10;;;;;;;-3.10;80.77;97702.00;101330;1311;62903;-24
2022/11/18 04:55:50;;;;;;;3.60;2.70;;;;;;;-3.19;81.24;97704.09;101206;1314;74733;-25
2022/11/18 04:58:17;;;;;;;9.90;4.70;;;;;;;-2.66;81.34;97704.63;101240;1313;75503;-25
2022/11/18 05:00:44;;;;;;;13.90;5.40;;;;;;;-1.92;80.49;97708.61;101312;1312;74313;-25
2022/11/18 05:03:11;;;;;;;9.00;3.80;;;;;;;-1.71;79.58;97707.65;100716;1307;1206461;-25
2022/11/18 05:05:38;;;;;;;7.30;4.10;;;;;;;-1.82;78.93;97709.48;101464;1308;61829;-25
2022/11/18 05:08:05;;;;;;;6.60;4.00;;;;;;;-2.11;78.75;97711.93;101478;1302;72645;-22
2022/11/18 05:10:32;;;;;;;6.40;4.20;;;;;;;-2.37;79.01;97711.05;101601;1309;75429;-24
2022/11/18 05:12:59;;;;;;;4.80;3.80;;;;;;;-2.59;79.77;97712.48;101616;1309;74912;-25
2022/11/18 05:15:25;;;;;;;5.70;3.60;;;;;;;-2.77;80.12;97711.29;101589;1309;61824;-25
2022/11/18 05:17:52;;;;;;;4.90;3.70;;;;;;;-2.93;80.90;97716.47;101373;1303;61378;-25
2022/11/18 05:20:20;;;;;;;4.30;2.90;;;;;;;-3.02;81.42;97722.69;101606;1309;74511;-24
2022/11/18 05:22:47;;;;;;;4.60;3.50;;;;;;;-2.51;81.86;97726.84;101607;1309;76906;-25
2022/11/18 05:25:14;;;;;;;7.10;4.50;;;;;;;-1.71;80.64;97725.55;101581;1309;75289;-22
2022/11/18 05:27:41;;;;;;;7.00;4.00;;;;;;;-1.48;79.19;97728.61;101603;1308;62927;-22
2022/11/18 05:30:08;;;;;;;6.50;4.10;;;;;;;-1.59;78.48;97727.34;101340;1304;63071;-22
2022/11/18 05:32:35;;;;;;;4.00;2.60;;;;;;;-1.82;78.81;97731.92;101270;1305;74496;-22
2022/11/18 05:35:02;;;;;;;4.70;3.40;;;;;;;-2.06;79.38;97731.92;101393;1308;76492;-22
2022/11/18 05:37:31;;;;;;;3.40;2.50;;;;;;;-2.32;79.70;97736.28;101428;1308;73994;-24
2022/11/18 05:39:58;;;;;;;5.40;3.50;;;;;;;-2.56;80.13;97738.29;101606;1309;61171;-24
2022/11/18 05:45:11;;;;;;;9.40;4.30;;;;;;;-1.81;80.74;97737.64;101597;1301;75582;-25
2022/11/18 05:47:58;;;;;;;5.70;3.70;;;;;;;-1.40;79.55;97740.46;101444;1308;76074;-24
2022/11/18 05:50:25;;;;;;;4.90;3.60;;;;;;;-1.50;78.53;97744.39;101554;1309;75003;-22
2022/11/18 05:52:52;;;;;;;7.00;5.20;;;;;;;-1.70;78.74;97747.96;101572;1309;61180;-23
2022/11/18 05:55:19;;;;;;;9.80;6.00;;;;;;;-1.93;79.06;97748.48;101447;1312;62804;-26
2022/11/18 05:57:47;;;;;;;8.00;5.00;;;;;;;-2.16;79.25;97751.00;101440;1311;75669;-27
2022/11/18 06:00:15;;;;;;;7.40;5.00;;;;;;;-2.42;80.03;97746.99;101517;1302;76932;-26
2022/11/18 06:02:41;;;;;;;6.80;4.80;;;;;;;-2.63;80.78;97747.66;101130;1314;74960;-25
2022/11/18 06:05:08;;;;;;;6.40;3.30;;;;;;;-2.73;81.41;97751.39;101324;1304;62655;-26
2022/11/18 06:07:40;;;;;;;4.40;3.10;;;;;;;-2.24;81.67;97754.45;101560;1309;62598;-25
2022/11/18 06:10:08;;;;;;;6.50;3.40;;;;;;;-1.54;80.44;97756.48;100941;1314;75647;-24
2022/11/18 06:12:38;;;;;;;7.90;4.00;;;;;;;-1.38;79.50;97761.60;101313;1310;76744;-24
2022/11/18 06:15:10;;;;;;;5.20;3.90;;;;;;;-1.53;79.12;97757.67;101304;1313;74693;-24
2022/11/18 06:17:58;;;;;;;6.10;3.80;;;;;;;-1.78;79.00;97757.91;101579;1312;61134;-24
2022/11/18 06:20:25;;;;;;;5.00;3.60;;;;;;;-2.06;79.44;97758.29;101354;1303;62594;-22
2022/11/18 06:22:53;;;;;;;4.70;3.10;;;;;;;-2.24;80.20;97759.89;101240;1312;75582;-23
2022/11/18 06:25:21;;;;;;;5.40;4.10;;;;;;;-2.39;80.22;97761.81;101162;1309;75554;-23
2022/11/18 06:27:48;;;;;;;4.10;2.90;;;;;;;-2.52;81.14;97758.85;102140;1299;74198;-24
2022/11/18 06:30:16;;;;;;;4.30;3.00;;;;;;;-2.03;81.20;97760.54;102401;1290;63953;-25
2022/11/18 06:32:43;;;;;;;4.80;3.50;;;;;;;-1.26;79.87;97759.98;102326;1299;62793;-24
2022/11/18 06:35:09;;;;;;;7.00;4.60;;;;;;;-1.08;78.42;97760.54;102361;1299;74515;-24
2022/11/18 06:37:36;;;;;;;11.60;6.70;;;;;;;-1.25;78.12;97762.27;102358;1292;75506;-24
2022/11/18 06:40:04;;;;;;;8.60;4.50;;;;;;;-1.51;78.40;97761.97;102334;1298;75233;-24
2022/11/18 06:45:17;;;;;;;6.20;4.90;;;;;;;-1.96;79.64;97757.66;102334;1299;62790;-25
2022/11/18 06:47:44;;;;;;;8.00;5.50;;;;;;;-2.20;80.18;97765.45;102336;1297;75318;-25
2022/11/18 06:50:11;;;;;;;7.70;4.10;;;;;;;-2.36;80.78;97767.61;102283;1294;76157;-25
2022/11/18 06:52:38;;;;;;;6.90;4.10;;;;;;;-1.93;81.02;97763.93;102327;1298;74919;-25
2022/11/18 07:43:45;;;;;;;11.00;5.40;;;;;;;-1.17;76.99;97770.23;102302;1293;61687;-24
2022/11/18 07:46:13;;;;;;;5.40;2.80;;;;;;;-1.39;77.73;97771.91;102290;1299;61726;-25
2022/11/18 07:48:41;;;;;;;5.40;3.50;;;;;;;-1.67;77.98;97771.28;102180;1299;74519;-24
2022/11/18 07:51:09;;;;;;;7.50;4.40;;;;;;;-1.91;78.87;97775.58;102249;1294;76558;-26
2022/11/18 07:53:38;;;;;;;9.20;5.10;;;;;;;-2.09;79.83;97778.87;102347;1294;75226;-26
2022/11/18 07:56:07;;;;;;;3.60;2.60;;;;;;;-2.19;80.31;97776.84;102028;1296;61732;-25
2022/11/18 07:58:36;;;;;;;4.60;3.00;;;;;;;-1.88;80.51;97773.58;102263;1301;61132;-24
2022/11/18 08:01:12;;;;;;;4.60;2.80;;;;;;;-1.24;78.95;97777.77;102201;1294;75134;-25
2022/11/18 08:03:41;;;;;;;9.30;4.90;;;;;;;-1.09;77.80;97780.02;102216;1296;74535;-25
2022/11/18 08:06:11;;;;;;;3.60;2.50;;;;;;;-1.19;77.88;97781.25;102210;1294;74809;-25
2022/11/18 08:08:40;;;;;;;5.30;3.80;;;;;;;-1.40;78.34;97782.00;102315;1299;61051;-24
2022/11/18 08:11:14;;;;;;;6.00;3.50;;;;;;;-1.59;78.47;97781.78;102084;1302;61126;-24
2022/11/18 08:13:52;;;;;;;6.90;4.70;;;;;;;-1.79;79.22;97785.73;102079;1301;75617;-24
2022/11/18 08:16:23;;;;;;;6.30;3.70;;;;;;;-1.84;79.78;97782.88;102012;1299;76372;-23
2022/11/18 08:18:52;;;;;;;6.40;3.60;;;;;;;-1.18;79.51;97779.77;102174;1300;74428;-24
2022/11/18 08:21:21;;;;;;;11.00;4.90;;;;;;;-0.58;77.59;97789.31;102281;1294;61175;-24
2022/11/18 08:23:56;;;;;;;8.70;4.70;;;;;;;-0.48;76.48;97792.20;102045;1298;61171;-24
2022/11/18 08:26:24;;;;;;;9.40;5.30;;;;;;;-0.74;75.92;97794.77;102260;1299;75232;-24
2022/11/18 08:28:52;;;;;;;7.30;4.10;;;;;;;-0.93;77.18;97791.94;102208;1294;75544;-24
2022/11/18 08:31:24;;;;;;;7.20;3.60;;;;;;;-1.17;77.29;97800.69;102143;1299;75078;-24
2022/11/18 08:34:05;;;;;;;7.40;4.50;;;;;;;-1.36;78.09;97804.09;102208;1293;61760;-24
2022/11/18 08:36:36;;;;;;;4.40;2.70;;;;;;;-1.53;78.72;97800.38;102196;1299;61765;-24
2022/11/18 08:39:05;;;;;;;7.30;4.00;;;;;;;-1.26;78.73;97798.77;102011;1299;75535;-24
2022/11/18 08:41:36;;;;;;;9.30;5.00;;;;;;;-0.59;77.21;97801.47;102048;1299;75583;-26
2022/11/18 08:44:06;;;;;;;6.60;4.40;;;;;;;-0.38;76.34;97804.08;102311;1292;74388;-27
2022/11/18 08:46:34;;;;;;;7.10;4.60;;;;;;;-0.43;75.98;97802.64;105990;1292;61724;-24
2022/11/18 08:49:01;;;;;;;9.20;4.90;;;;;;;-0.57;76.04;97805.11;105965;1292;62257;-24
2022/11/18 08:51:29;;;;;;;6.40;4.50;;;;;;;-0.77;76.43;97803.67;106020;1283;75232;-24
2022/11/18 08:53:56;;;;;;;6.80;4.00;;;;;;;-0.91;76.92;97805.99;105953;1292;76434;-23
2022/11/18 08:56:24;;;;;;;9.90;6.90;;;;;;;-1.03;77.67;97805.60;106002;1292;74670;-24
2022/11/18 08:58:53;;;;;;;6.00;3.50;;;;;;;-1.09;78.16;97809.81;105976;1285;63147;-24
2022/11/18 09:01:21;;;;;;;5.00;3.70;;;;;;;-0.59;77.51;97812.77;105969;1291;61089;-24
2022/11/18 09:03:49;;;;;;;5.50;4.10;;;;;;;0.05;75.55;97808.09;105974;1291;74068;-23
2022/11/18 09:06:18;;;;;;;6.80;4.50;;;;;;;0.19;74.13;97808.88;105973;1291;76263;-24
2022/11/18 09:08:46;;;;;;;6.40;4.50;;;;;;;0.07;74.56;97810.86;105739;1294;73352;-24
2022/11/18 09:11:18;;;;;;;3.80;3.10;;;;;;;-0.05;75.10;97814.84;105954;1292;60630;-24
2022/11/18 09:13:45;;;;;;;5.70;3.80;;;;;;;-0.30;75.27;97815.92;105805;1295;62166;-24
2022/11/18 09:16:33;;;;;;;4.40;3.20;;;;;;;-0.60;76.48;97810.59;105951;1291;74958;-23
2022/11/18 09:19:02;;;;;;;4.40;3.20;;;;;;;-0.80;77.01;97807.42;105913;1284;75034;-24
2022/11/18 09:21:50;;;;;;;4.60;3.20;;;;;;;-0.94;77.42;97803.92;105915;1290;74494;-23
2022/11/18 09:24:17;;;;;;;3.30;2.40;;;;;;;-0.59;77.71;97808.30;105915;1292;61354;-24
2022/11/18 09:26:45;;;;;;;3.70;2.60;;;;;;;-0.01;75.87;97799.77;105947;1291;61474;-23
2022/11/18 09:29:12;;;;;;;5.80;3.70;;;;;;;0.09;74.96;97794.72;105909;1292;76116;-24
2022/11/18 09:31:40;;;;;;;6.00;4.20;;;;;;;-0.06;75.09;97796.79;105965;1292;75111;-24
2022/11/18 09:34:09;;;;;;;5.00;3.70;;;;;;;-0.23;75.42;97793.13;105914;1291;74563;-24
2022/11/18 09:36:39;;;;;;;6.30;4.30;;;;;;;-0.39;75.86;97788.61;105914;1292;61369;-24
2022/11/18 09:39:08;;;;;;;6.50;4.60;;;;;;;-0.55;76.53;97785.41;105930;1291;61471;-24
2022/11/18 09:41:48;;;;;;;5.20;2.40;;;;;;;-0.77;76.67;97775.73;105728;1294;75958;-23
2022/11/18 09:44:41;;;;;;;6.70;3.70;;;;;;;-0.87;77.06;97773.91;105743;1295;76874;-24
2022/11/18 09:47:19;;;;;;;6.30;3.90;;;;;;;-0.23;76.00;97763.81;105591;1291;74649;-24
2022/11/18 09:49:47;;;;;;;12.90;6.80;;;;;;;0.06;75.02;97756.55;105752;1295;62520;-24
2022/11/18 09:52:26;;;;;;;9.50;5.80;;;;;;;0.05;74.70;97757.77;105772;1294;61387;-23
2022/11/18 09:55:12;;;;;;;6.20;4.10;;;;;;;-0.06;75.27;97756.20;105843;1294;75936;-24
2022/11/18 09:57:42;;;;;;;8.40;5.20;;;;;;;-0.17;75.35;97754.11;105852;1287;75196;-23
2022/11/18 10:00:20;;;;;;;7.90;5.10;;;;;;;-0.29;75.65;97747.80;105908;1286;74555;-24
2022/11/18 10:03:00;;;;;;;8.40;4.70;;;;;;;-0.37;75.91;97742.77;105764;1295;59331;-23
2022/11/18 11:12:48;;;;;;;6.80;4.20;;;;;;;-2.42;85.16;97791.89;100031;1319;615459;-19
2022/11/18 11:15:16;;;;;;;;;;;;;;;-1.40;84.57;97794.42;101086;1314;61199;-19
2022/11/18 11:21:12;;;;;;;9.90;6.00;;;;;;;-0.31;78.58;97790.89;101186;1312;73781;-20
2022/11/18 11:23:40;;;;;;;3.90;2.90;;;;;;;-0.45;78.30;97787.27;101204;1314;75594;-20
2022/11/18 11:26:36;;;;;;;6.90;4.40;;;;;;;-0.73;78.36;97780.77;100721;1308;1161479;-19
2022/11/18 11:29:49;;;;;;;5.70;3.40;;;;;;;-1.10;79.00;97779.70;101530;1308;61087;-20
2022/11/18 11:32:17;;;;;;;;;;;;;;;-0.84;79.43;97773.19;101538;1311;61164;-19
2022/11/18 11:34:46;;;;;;;7.70;3.30;;;;;;;-0.34;78.79;97771.27;101646;1307;73833;-19
2022/11/18 11:37:23;;;;;;;5.20;3.40;;;;;;;-0.20;78.45;97775.40;101686;1307;76053;-19
2022/11/18 11:40:29;;;;;;;5.60;4.00;;;;;;;-0.37;78.00;97782.69;101637;1307;74242;-20
2022/11/18 11:43:03;;;;;;;6.30;4.10;;;;;;;-0.69;78.48;97791.48;101780;1299;61094;-19
2022/11/18 11:46:01;;;;;;;6.10;3.10;;;;;;;-0.89;79.35;97794.24;101685;1305;61111;-19
2022/11/18 11:48:51;;;;;;;8.20;3.90;;;;;;;-0.51;79.64;97798.67;101113;1305;74409;-19
2022/11/18 11:51:44;;;;;;;6.60;3.60;;;;;;;0.11;77.72;97802.34;101851;1295;75743;-19
2022/11/18 11:54:20;;;;;;;5.40;3.80;;;;;;;0.12;76.80;97808.04;101516;1308;73048;-20
2022/11/18 11:56:54;;;;;;;7.40;4.40;;;;;;;-0.08;77.28;97807.15;101877;1307;61198;-19
2022/11/18 12:00:07;;;;;;;7.30;4.30;;;;;;;-0.33;77.76;97800.21;101464;1306;61843;-19
2022/11/18 12:03:06;;;;;;;11.20;5.90;;;;;;;-0.62;78.92;97796.55;101483;1305;74355;-19
2022/11/18 12:05:39;;;;;;;8.00;5.00;;;;;;;-0.51;79.67;97791.50;101636;1306;74756;-19
2022/11/18 12:08:23;;;;;;;7.90;4.70;;;;;;;0.19;78.49;97785.63;101419;1309;73274;-20
2022/11/18 12:11:15;;;;;;;9.60;5.60;;;;;;;0.48;77.14;97794.82;101495;1307;62137;-20
2022/11/18 12:14:01;;;;;;;9.90;5.80;;;;;;;0.27;76.80;97775.13;101716;1308;61767;-19
2022/11/18 12:16:44;;;;;;;8.20;4.90;;;;;;;-0.05;77.41;97773.73;101313;1308;74494;-20
2022/11/18 12:19:14;;;;;;;8.60;4.70;;;;;;;-0.41;78.34;97770.81;101463;1307;75857;-20
2022/11/18 12:21:44;;;;;;;5.30;2.70;;;;;;;-0.68;79.19;97771.14;101424;1304;74405;-20
2022/11/18 12:24:30;;;;;;;6.00;3.40;;;;;;;-0.67;80.18;97779.59;101579;1307;63059;-19
2022/11/18 12:27:11;;;;;;;6.60;3.80;;;;;;;-0.16;78.97;97775.02;101265;1310;61200;-19
2022/11/18 12:29:42;;;;;;;6.10;3.90;;;;;;;-0.06;78.00;97769.83;101321;1309;73627;-20
2022/11/18 12:32:45;;;;;;;5.40;3.80;;;;;;;-0.25;78.02;97771.80;101324;1314;75634;-19
2022/11/18 12:35:34;;;;;;;7.10;3.80;;;;;;;-0.55;78.75;97773.48;101380;1309;74136;-19
2022/11/18 12:38:06;;;;;;;11.50;5.40;;;;;;;-0.79;80.01;97778.39;101350;1307;61161;-20
2022/11/18 12:40:43;;;;;;;9.50;5.20;;;;;;;-0.90;80.75;97780.34;101531;1308;61237;-19
2022/11/18 12:46:34;;;;;;;13.10;7.60;;;;;;;0.16;79.07;97787.69;101387;1307;75974;-20
2022/11/18 12:49:25;;;;;;;5.80;3.40;;;;;;;0.18;78.50;97789.27;101491;1309;74151;-20
2022/11/18 12:51:59;;;;;;;7.90;5.40;;;;;;;-0.09;77.94;97781.13;101289;1301;61195;-20
2022/11/18 12:54:35;;;;;;;9.10;5.70;;;;;;;-0.30;79.11;97792.19;101376;1307;62040;-19
2022/11/18 12:57:19;;;;;;;5.30;4.00;;;;;;;-0.46;79.81;97801.63;101642;1307;74859;-20
2022/11/18 12:59:47;;;;;;;7.90;4.80;;;;;;;-0.62;80.26;97790.37;101269;1310;76130;-20
2022/11/18 13:02:26;;;;;;;9.60;5.50;;;;;;;-0.14;79.73;97785.65;101631;1305;74331;-19
2022/11/18 13:05:09;;;;;;;5.30;3.50;;;;;;;0.23;78.49;97783.70;101236;1309;61747;-20
2022/11/18 13:08:14;;;;;;;6.60;4.20;;;;;;;0.15;77.96;97775.61;101427;1308;61304;-20
2022/11/18 13:10:44;;;;;;;9.10;5.40;;;;;;;-0.23;78.77;97773.08;101355;1311;74505;-20
2022/11/18 13:13:31;;;;;;;4.40;3.20;;;;;;;-0.44;79.65;97768.58;101460;1306;75020;-19
2022/11/18 13:18:52;;;;;;;5.20;3.40;;;;;;;-0.45;81.11;97751.77;101418;1301;61236;-20
2022/11/18 13:24:32;;;;;;;6.40;2.80;;;;;;;-0.03;78.47;97766.43;101278;1306;74539;-20
2022/11/18 13:26:59;;;;;;;8.20;4.70;;;;;;;-0.29;78.91;97765.35;101299;1314;75883;-20
2022/11/18 13:29:45;;;;;;;9.70;5.30;;;;;;;-0.50;79.88;97780.20;101584;1298;74196;-20
2022/11/18 13:32:21;;;;;;;10.10;5.90;;;;;;;-0.72;80.50;97792.86;101783;1305;61168;-20
2022/11/18 13:34:51;;;;;;;10.30;4.70;;;;;;;-0.97;81.37;97791.95;101684;1305;61129;-20
2022/11/18 13:37:29;;;;;;;7.00;4.10;;;;;;;-1.06;82.04;97789.02;101659;1306;74869;-20
2022/11/18 13:39:57;;;;;;;8.20;4.80;;;;;;;-0.40;81.14;97784.39;101673;1311;75773;-20
2022/11/18 13:42:31;;;;;;;7.60;5.30;;;;;;;-0.03;79.55;97780.08;101855;1305;73946;-19
2022/11/18 13:45:00;;;;;;;7.20;4.00;;;;;;;-0.10;78.75;97784.42;101580;1308;61304;-20
2022/11/18 13:47:38;;;;;;;8.30;5.10;;;;;;;-0.30;79.07;97791.50;101466;1306;61120;-20
2022/11/18 13:50:36;;;;;;;11.40;5.70;;;;;;;-0.57;79.61;97793.38;101854;1303;74537;-19
2022/11/18 13:53:25;;;;;;;9.50;5.50;;;;;;;-0.84;80.71;97799.81;101753;1301;75878;-20
2022/11/18 13:56:03;;;;;;;7.50;4.60;;;;;;;-0.95;81.65;97804.16;101682;1308;74497;-20
2022/11/18 13:58:39;;;;;;;12.50;5.10;;;;;;;-0.36;81.07;97802.10;101787;1305;61224;-20
2022/11/18 14:01:29;;;;;;;10.60;5.40;;;;;;;-0.03;79.35;97800.89;101868;1300;61158;-20
2022/11/18 14:04:03;;;;;;;7.80;4.70;;;;;;;-0.14;79.02;97790.46;101568;1308;74715;-19
2022/11/18 14:06:36;;;;;;;12.00;6.90;;;;;;;-0.50;79.41;97785.11;101836;1305;75596;-19
2022/11/18 14:09:10;;;;;;;11.20;6.10;;;;;;;-0.79;80.37;97785.70;101751;1308;74447;-20
2022/11/18 14:11:41;;;;;;;4.60;3.20;;;;;;;-1.06;81.17;97783.77;101846;1304;61293;-21
2022/11/18 14:14:09;;;;;;;8.70;4.40;;;;;;;-1.00;81.88;97792.10;101534;1307;61181;-20
2022/11/18 14:16:40;;;;;;;5.00;3.90;;;;;;;-0.43;81.13;97796.16;101662;1306;74529;-20